الصفحة الرئيسية
METAR-TAF:

METAR-TAF

مطار :

Coonabarabran, أستراليا

دائرة عرض: 31-20S, خط طول: 149-16E, ارتفاع: 645 متر

مراقبة الطقس الحالي

تاريخ ووقت الإصدار 52 دقيقة قبل الساعة 06:00UTC
ريح 10 عقدة من الجنوب
درجة الحرارة 18°درجة مئوية
الرطوبة 56%
ضغط 1018 hPa
الرؤية 10 كم أو أكثر
غيوم مفككة على ارتفاع 5000 قدم

METAR: YCBB 060600Z AUTO 19010KT 9999 // BKN050 18/09 Q1018

زمن: 16:52 (06:52 UTC)


TAF: مفقودة

أرصاد الطقس والتوقعات من أكثر من 4000 مطار (تقارير الطقس للمطار METAR والتنبؤ بالطقس بالمطارTAF).

المحطات المتاحة هي النقط الصفراء والحمراء على الخريطة.

حرك المؤشر فوق النقطة لمعرفة اسم المحطة.

ثم انقر لمعرفة أرصاد وتوقعات الطقس.

لتغيير الخارطة: اضغط على الأزرار الخضراء مع رمز الصليب الأسود للتكبير. على الزر الأخضر مع شرطة للتصغير، أو على الأسهم الخضراء للخرائط المجاورة.


METAR-TAF: